createdAt,value
2023-01-20T00:00:32.966Z,10.07
2023-01-20T00:04:52.150Z,9.77
2023-01-20T00:09:16.056Z,9.10
2023-01-20T00:13:33.153Z,9.47
2023-01-20T00:17:53.955Z,9.05
2023-01-20T00:22:13.605Z,8.68
2023-01-20T00:26:33.714Z,8.17
2023-01-20T00:30:51.486Z,8.40
2023-01-20T00:35:10.614Z,9.38
2023-01-20T00:39:32.058Z,8.77
2023-01-20T00:43:51.851Z,8.90
2023-01-20T00:48:12.575Z,9.73
2023-01-20T00:52:30.927Z,9.27
2023-01-20T00:56:50.511Z,9.13
2023-01-20T01:01:10.407Z,8.85
2023-01-20T01:05:28.272Z,10.05
2023-01-20T01:09:46.335Z,8.60
2023-01-20T01:14:12.894Z,9.05
2023-01-20T01:18:37.642Z,9.32
2023-01-20T01:23:01.624Z,8.82
2023-01-20T01:27:25.597Z,8.43
2023-01-20T01:31:53.507Z,8.30
2023-01-20T01:36:21.453Z,9.25
2023-01-20T01:40:50.509Z,7.97
2023-01-20T01:45:25.021Z,8.35
2023-01-20T01:49:53.384Z,8.40
2023-01-20T01:54:22.879Z,8.00
2023-01-20T01:58:56.108Z,6.60
2023-01-20T02:03:20.641Z,8.57
2023-01-20T02:07:48.214Z,8.10
2023-01-20T02:12:15.451Z,8.67
2023-01-20T02:16:49.724Z,8.18
2023-01-20T02:22:00.150Z,8.65
2023-01-20T02:26:51.703Z,8.83
2023-01-20T02:31:52.141Z,8.35
2023-01-20T02:36:26.934Z,8.65
2023-01-20T02:40:59.766Z,8.47
2023-01-20T02:45:28.251Z,8.88
2023-01-20T02:49:55.813Z,8.60
2023-01-20T02:54:24.577Z,8.35
2023-01-20T02:58:51.931Z,9.67
2023-01-20T03:03:20.755Z,8.00
2023-01-20T03:07:46.145Z,8.30
2023-01-20T03:12:17.794Z,8.77
2023-01-20T03:16:43.108Z,8.60
2023-01-20T03:21:09.897Z,8.82
2023-01-20T03:25:34.311Z,8.00
2023-01-20T03:29:59.841Z,8.55
2023-01-20T03:34:25.512Z,8.85
2023-01-20T03:38:50.356Z,8.52
2023-01-20T03:43:21.064Z,8.57
2023-01-20T03:48:00.443Z,8.30
2023-01-20T03:52:47.655Z,8.75
2023-01-20T03:57:17.993Z,8.30
2023-01-20T04:01:45.437Z,8.35
2023-01-20T04:06:14.889Z,8.88
2023-01-20T04:10:42.795Z,8.87
2023-01-20T04:15:08.900Z,8.05
2023-01-20T04:19:32.904Z,7.80
2023-01-20T04:24:04.520Z,8.35
2023-01-20T04:28:28.504Z,7.50
2023-01-20T04:32:52.666Z,7.50
2023-01-20T04:37:16.619Z,7.90
2023-01-20T04:41:41.761Z,7.67
2023-01-20T04:46:05.936Z,7.30
2023-01-20T04:50:30.365Z,7.82
2023-01-20T04:54:54.872Z,7.67
2023-01-20T04:59:20.366Z,8.10
2023-01-20T05:03:45.507Z,7.90
2023-01-20T05:08:09.631Z,7.63
2023-01-20T05:12:33.543Z,8.33
2023-01-20T05:16:59.059Z,7.80
2023-01-20T05:21:23.376Z,7.95
2023-01-20T05:25:51.752Z,8.13
2023-01-20T05:30:16.024Z,8.27
2023-01-20T05:34:41.396Z,7.90
2023-01-20T05:39:05.361Z,8.43
2023-01-20T05:43:29.649Z,7.97
2023-01-20T05:47:56.749Z,7.43
2023-01-20T05:52:22.269Z,7.80
2023-01-20T05:56:48.609Z,8.47
2023-01-20T06:01:14.548Z,8.80
2023-01-20T06:05:38.715Z,8.63
2023-01-20T06:10:04.419Z,9.07
2023-01-20T06:14:28.609Z,9.32
2023-01-20T06:18:52.779Z,10.00
2023-01-20T06:23:17.445Z,9.07
2023-01-20T06:27:42.792Z,9.60
2023-01-20T06:32:07.057Z,8.93
2023-01-20T06:36:31.113Z,8.25
2023-01-20T06:40:58.831Z,8.73
2023-01-20T06:45:24.461Z,8.57
2023-01-20T06:49:48.295Z,8.93
2023-01-20T06:54:12.245Z,8.63
2023-01-20T06:58:36.270Z,8.70
2023-01-20T07:02:58.706Z,8.50
2023-01-20T07:07:22.727Z,8.03
2023-01-20T07:11:46.837Z,8.70
2023-01-20T07:16:15.348Z,8.80
2023-01-20T07:20:41.105Z,8.32
2023-01-20T07:25:05.434Z,8.10
2023-01-20T07:29:29.594Z,8.45
2023-01-20T07:33:55.649Z,8.15
2023-01-20T07:38:21.134Z,8.70
2023-01-20T07:42:45.226Z,8.60
2023-01-20T07:47:09.130Z,8.57
2023-01-20T07:51:33.008Z,8.67
2023-01-20T07:56:01.197Z,9.55
2023-01-20T08:00:25.794Z,9.00
2023-01-20T08:04:49.559Z,9.43
2023-01-20T08:09:14.797Z,9.03
2023-01-20T08:13:40.721Z,8.93
2023-01-20T08:18:04.881Z,8.95
2023-01-20T08:22:28.818Z,8.83
2023-01-20T08:26:53.423Z,9.65
2023-01-20T08:31:20.869Z,8.98
2023-01-20T08:35:47.957Z,8.90
2023-01-20T08:40:12.982Z,9.52
2023-01-20T08:44:36.895Z,9.00
2023-01-20T08:49:02.918Z,9.63
2023-01-20T08:53:27.355Z,9.03
2023-01-20T08:57:51.471Z,8.85
2023-01-20T09:02:15.530Z,8.90
2023-01-20T09:06:43.111Z,9.07
2023-01-20T09:11:09.153Z,9.20
2023-01-20T09:15:33.292Z,9.48
2023-01-20T09:19:57.428Z,8.97
2023-01-20T09:24:23.246Z,9.32
2023-01-20T09:28:47.539Z,9.00
2023-01-20T09:33:12.153Z,9.02
2023-01-20T09:37:55.546Z,9.13
2023-01-20T09:42:47.256Z,9.48
2023-01-20T09:47:24.414Z,9.35
2023-01-20T09:52:14.823Z,9.53
2023-01-20T09:56:44.905Z,9.85
2023-01-20T10:01:14.155Z,10.48
2023-01-20T10:05:40.830Z,8.90
2023-01-20T10:10:15.790Z,9.00
2023-01-20T10:14:45.418Z,9.90
2023-01-20T10:19:19.773Z,9.07
2023-01-20T10:23:47.737Z,9.17
2023-01-20T10:28:18.099Z,9.27
2023-01-20T10:32:48.684Z,9.68
2023-01-20T10:37:15.986Z,9.13
2023-01-20T10:41:44.783Z,9.55
2023-01-20T10:46:24.874Z,9.77
2023-01-20T10:51:00.153Z,9.67
2023-01-20T10:55:33.966Z,10.23
2023-01-20T11:00:01.764Z,10.73
2023-01-20T11:04:26.099Z,9.90
2023-01-20T11:08:50.346Z,10.80
2023-01-20T11:13:15.889Z,12.05
2023-01-20T11:17:40.139Z,11.45
2023-01-20T11:22:12.432Z,11.60
2023-01-20T11:26:39.151Z,11.50
2023-01-20T11:31:05.360Z,11.10
2023-01-20T11:35:31.749Z,10.53
2023-01-20T11:40:02.264Z,10.70
2023-01-20T11:44:26.518Z,10.73
2023-01-20T11:49:06.896Z,11.25
2023-01-20T11:53:32.965Z,10.80
2023-01-20T11:57:59.707Z,11.43
2023-01-20T12:02:25.277Z,10.50
2023-01-20T12:06:57.324Z,10.63
2023-01-20T12:11:28.843Z,10.35
2023-01-20T12:15:56.891Z,11.55
2023-01-20T12:20:27.696Z,11.73
2023-01-20T12:25:11.660Z,11.95
2023-01-20T12:29:45.739Z,11.80
2023-01-20T12:34:13.876Z,12.55
2023-01-20T12:38:44.709Z,11.40
2023-01-20T12:43:29.841Z,11.75
2023-01-20T12:48:05.280Z,11.20
2023-01-20T12:52:44.646Z,11.33
2023-01-20T12:57:16.563Z,12.20
2023-01-20T13:01:48.589Z,12.13
2023-01-20T13:06:28.416Z,12.20
2023-01-20T13:11:04.668Z,11.45
2023-01-20T13:15:31.326Z,13.02
2023-01-20T13:20:01.122Z,12.40
2023-01-20T13:24:29.335Z,15.20
2023-01-20T13:28:54.592Z,13.27
2023-01-20T13:33:36.860Z,12.60
2023-01-20T13:38:03.467Z,12.37
2023-01-20T13:42:32.672Z,12.65
2023-01-20T13:46:57.174Z,11.93
2023-01-20T13:51:44.149Z,12.40
2023-01-20T13:56:26.737Z,11.77
2023-01-20T14:00:52.946Z,12.05
2023-01-20T14:05:29.819Z,13.05
2023-01-20T14:09:54.342Z,13.07
2023-01-20T14:14:21.906Z,12.95
2023-01-20T14:18:46.116Z,12.25
2023-01-20T14:23:27.025Z,13.23
2023-01-20T14:27:52.486Z,12.65
2023-01-20T14:32:22.386Z,12.40
2023-01-20T14:36:47.944Z,12.53
2023-01-20T14:41:34.648Z,12.45
2023-01-20T14:45:58.754Z,12.80
2023-01-20T14:50:24.352Z,12.90
2023-01-20T14:54:49.785Z,13.33
2023-01-20T14:59:20.109Z,12.95
2023-01-20T15:03:44.142Z,13.15
2023-01-20T15:08:32.054Z,13.43
2023-01-20T15:12:56.081Z,13.98
2023-01-20T15:17:20.591Z,13.73
2023-01-20T15:21:46.282Z,14.70
2023-01-20T15:26:25.731Z,14.25
2023-01-20T15:30:49.928Z,14.60
2023-01-20T15:35:15.676Z,15.02
2023-01-20T15:39:40.104Z,14.60
2023-01-20T15:44:05.808Z,15.98
2023-01-20T15:48:30.283Z,15.05
2023-01-20T15:52:54.401Z,15.70
2023-01-20T15:57:19.057Z,14.80
2023-01-20T16:01:47.222Z,15.25
2023-01-20T16:06:13.927Z,15.47
2023-01-20T16:10:37.780Z,14.40
2023-01-20T16:15:01.780Z,14.10
2023-01-20T16:19:27.148Z,14.65
2023-01-20T16:23:51.230Z,13.87
2023-01-20T16:28:18.612Z,14.80
2023-01-20T16:32:42.610Z,13.70
2023-01-20T16:37:07.976Z,14.07
2023-01-20T16:41:31.933Z,15.55
2023-01-20T16:45:56.269Z,14.85
2023-01-20T16:50:20.549Z,15.37
2023-01-20T16:54:45.984Z,14.85
2023-01-20T16:59:11.131Z,14.52
2023-01-20T17:03:34.894Z,14.73
2023-01-20T17:07:59.729Z,15.83
2023-01-20T17:12:25.079Z,15.18
2023-01-20T17:16:49.307Z,15.05
2023-01-20T17:21:15.113Z,15.07
2023-01-20T17:25:39.122Z,15.98
2023-01-20T17:30:04.997Z,17.08
2023-01-20T17:34:28.997Z,14.43
2023-01-20T17:38:52.986Z,14.43
2023-01-20T17:43:16.827Z,17.85
2023-01-20T17:47:42.198Z,17.00
2023-01-20T17:52:06.575Z,17.37
2023-01-20T17:56:30.464Z,18.85
2023-01-20T18:00:54.326Z,17.70
2023-01-20T18:05:19.706Z,16.87
2023-01-20T18:09:43.790Z,17.98
2023-01-20T18:14:08.425Z,18.35
2023-01-20T18:18:33.180Z,19.10
2023-01-20T18:22:58.377Z,19.73
2023-01-20T18:27:24.907Z,18.17
2023-01-20T18:31:49.524Z,19.40
2023-01-20T18:36:16.655Z,18.50
2023-01-20T18:40:42.213Z,18.42
2023-01-20T18:45:06.880Z,17.75
2023-01-20T18:49:30.657Z,18.37
2023-01-20T18:53:56.711Z,18.52
2023-01-20T18:58:22.045Z,21.13
2023-01-20T19:02:46.183Z,20.73
2023-01-20T19:07:10.194Z,19.27
2023-01-20T19:11:38.440Z,21.13
2023-01-20T19:16:03.862Z,20.65
2023-01-20T19:20:28.444Z,21.00
2023-01-20T19:24:52.311Z,21.25
2023-01-20T19:29:17.354Z,20.65
2023-01-20T19:33:42.883Z,20.83
2023-01-20T19:38:06.797Z,20.05
2023-01-20T19:42:33.144Z,20.38
2023-01-20T19:47:02.389Z,20.20
2023-01-20T19:51:27.899Z,19.70
2023-01-20T19:55:52.419Z,20.30
2023-01-20T20:00:17.203Z,22.08
2023-01-20T20:04:41.261Z,22.57
2023-01-20T20:09:09.532Z,24.50
2023-01-20T20:13:35.662Z,23.30
2023-01-20T20:18:00.106Z,26.03
2023-01-20T20:22:24.476Z,27.17
2023-01-20T20:26:51.293Z,24.15
2023-01-20T20:31:15.740Z,23.10
2023-01-20T20:35:39.730Z,21.95
2023-01-20T20:40:03.673Z,22.58
2023-01-20T20:44:28.970Z,22.70
2023-01-20T20:48:55.620Z,21.23
2023-01-20T20:53:19.741Z,22.05
2023-01-20T20:57:46.825Z,20.13
2023-01-20T21:02:14.016Z,20.57
2023-01-20T21:06:38.098Z,20.20
2023-01-20T21:11:02.634Z,21.42
2023-01-20T21:15:26.941Z,19.93
2023-01-20T21:19:52.780Z,19.10
2023-01-20T21:24:16.621Z,21.60
2023-01-20T21:28:42.745Z,20.13
2023-01-20T21:33:06.475Z,20.20
2023-01-20T21:37:31.608Z,19.75
2023-01-20T21:41:55.758Z,21.55
2023-01-20T21:46:19.965Z,20.70
2023-01-20T21:51:01.426Z,20.63
2023-01-20T21:55:26.614Z,21.58
2023-01-20T21:59:50.488Z,19.33
2023-01-20T22:04:14.247Z,19.20
2023-01-20T22:08:38.267Z,18.40
2023-01-20T22:13:03.520Z,18.50
2023-01-20T22:17:27.694Z,17.73
2023-01-20T22:21:51.977Z,17.70
2023-01-20T22:26:16.019Z,17.13
2023-01-20T22:30:41.442Z,16.50
2023-01-20T22:35:05.914Z,17.23
2023-01-20T22:39:29.955Z,17.02
2023-01-20T22:43:55.286Z,16.33
2023-01-20T22:48:20.780Z,17.27
2023-01-20T22:52:44.679Z,17.30
2023-01-20T22:57:08.626Z,16.67
2023-01-20T23:01:34.480Z,15.60
2023-01-20T23:06:00.960Z,17.60
2023-01-20T23:10:41.908Z,16.38
2023-01-20T23:15:06.417Z,14.77
2023-01-20T23:19:30.345Z,13.38
2023-01-20T23:23:55.670Z,15.63
2023-01-20T23:28:19.692Z,15.17
2023-01-20T23:32:43.416Z,13.93
2023-01-20T23:37:07.429Z,15.50
2023-01-20T23:41:32.656Z,15.38
2023-01-20T23:46:00.128Z,13.40
2023-01-20T23:50:24.214Z,11.70
2023-01-20T23:54:48.196Z,14.20
2023-01-20T23:59:13.491Z,14.77
